Time;durP1;ratioP1;P1;durP2;ratioP2;P2;SDS_P1;SDS_P2;PMS_P1;PMS_P2;Temp;Humidity;BMP_temperature;BMP_pressure;BME280_temperature;BME280_humidity;BME280_pressure;Samples;Min_cycle;Max_cycle;Signal;HPM_P1;HPM_P2
2022/01/21 00:00:15;;;;;;;6.45;2.60;;;;;;;;;;4991184;28;20099;-84
2022/01/21 00:02:42;;;;;;;6.68;2.83;;;;;;;;;;4992669;28;20062;-84
2022/01/21 00:05:09;;;;;;;7.18;2.97;;;;;;;;;;4991216;28;20092;-84
2022/01/21 00:07:35;;;;;;;6.95;2.53;;;;;;;;;;5007599;28;20159;-84
2022/01/21 00:10:01;;;;;;;6.80;2.55;;;;;;;;;;4990482;28;20022;-85
2022/01/21 00:12:30;;;;;;;6.95;2.75;;;;;;;;;;4991464;28;20042;-84
2022/01/21 00:14:56;;;;;;;6.10;2.70;;;;;;;;;;4991640;28;20054;-84
2022/01/21 00:17:24;;;;;;;8.00;2.80;;;;;;;;;;4992977;28;20113;-84
2022/01/21 00:30:06;;;;;;;5.40;1.85;;;;;;;;;;4990992;28;20026;-85
2022/01/21 00:30:54;;;;;;;8.50;3.17;;;;;;;;;;4992977;28;20038;-84
2022/01/21 00:33:21;;;;;;;9.00;3.38;;;;;;;;;;4991666;28;20123;-84
2022/01/21 00:35:47;;;;;;;14.77;4.22;;;;;;;;;;4991229;28;20022;-84
2022/01/21 00:38:14;;;;;;;23.00;7.50;;;;;;;;;;4991170;28;20030;-85
2022/01/21 00:40:41;;;;;;;21.00;7.35;;;;;;;;;;4991482;28;20030;-84
2022/01/21 00:43:14;;;;;;;42.50;15.77;;;;;;;;;;5007863;28;20030;-85
2022/01/21 00:45:40;;;;;;;58.28;23.60;;;;;;;;;;4992597;28;20022;-84
2022/01/21 00:48:07;;;;;;;20.55;8.25;;;;;;;;;;4991693;28;20045;-84
2022/01/21 00:50:34;;;;;;;34.25;9.00;;;;;;;;;;4990864;28;20034;-84
2022/01/21 00:53:00;;;;;;;12.30;5.55;;;;;;;;;;4991991;28;20481;-85
2022/01/21 00:55:26;;;;;;;14.98;4.85;;;;;;;;;;4990127;28;20035;-84
2022/01/21 00:57:53;;;;;;;15.57;5.00;;;;;;;;;;4990057;28;20489;-84
2022/01/21 01:00:19;;;;;;;16.70;5.32;;;;;;;;;;4989552;28;20038;-84
2022/01/21 01:02:46;;;;;;;15.20;4.80;;;;;;;;;;5006594;28;20113;-84
2022/01/21 01:05:13;;;;;;;12.27;4.22;;;;;;;;;;4991075;28;20488;-84
2022/01/21 01:07:39;;;;;;;12.90;3.92;;;;;;;;;;4989755;28;20041;-84
2022/01/21 01:10:09;;;;;;;11.88;4.55;;;;;;;;;;4994897;28;20435;-85
2022/01/21 01:12:51;;;;;;;14.75;4.28;;;;;;;;;;4996490;28;20030;-86
2022/01/21 01:20:48;;;;;;;6.53;2.83;;;;;;;;;;4990551;28;20115;-84
2022/01/21 01:28:34;;;;;;;9.93;3.35;;;;;;;;;;4990944;28;20404;-85
2022/01/21 01:31:01;;;;;;;13.57;3.58;;;;;;;;;;4996558;28;20661;-85
2022/01/21 01:33:35;;;;;;;9.43;3.60;;;;;;;;;;5006251;28;20058;-84
2022/01/21 01:36:02;;;;;;;11.27;3.60;;;;;;;;;;4989950;28;20026;-85
2022/01/21 01:41:16;;;;;;;16.33;5.28;;;;;;;;;;5005014;28;20181;-84
2022/01/21 01:49:30;;;;;;;22.05;5.90;;;;;;;;;;4978305;28;20432;-84
2022/01/21 01:51:57;;;;;;;18.25;5.10;;;;;;;;;;4982670;28;20027;-84
2022/01/21 01:54:24;;;;;;;21.13;6.45;;;;;;;;;;4989724;28;20049;-85
2022/01/21 01:56:52;;;;;;;24.08;5.57;;;;;;;;;;4990272;28;20056;-84
2022/01/21 01:59:19;;;;;;;21.67;6.78;;;;;;;;;;4988412;28;20039;-84
2022/01/21 02:01:55;;;;;;;13.85;6.32;;;;;;;;;;4989235;28;20023;-85
2022/01/21 02:04:22;;;;;;;30.83;8.45;;;;;;;;;;5000302;28;20473;-84
2022/01/21 02:06:48;;;;;;;31.45;14.73;;;;;;;;;;5004660;28;20522;-84
2022/01/21 02:09:15;;;;;;;33.33;16.42;;;;;;;;;;4316607;28;10000694;-84
2022/01/21 02:11:41;;;;;;;38.25;20.50;;;;;;;;;;5004761;28;20041;-84
2022/01/21 02:14:12;;;;;;;35.72;18.45;;;;;;;;;;5005891;28;20050;-84
2022/01/21 02:22:13;;;;;;;19.80;7.82;;;;;;;;;;4989480;28;20049;-84
2022/01/21 02:27:15;;;;;;;22.70;7.82;;;;;;;;;;4989355;28;20076;-84
2022/01/21 02:29:49;;;;;;;26.35;7.75;;;;;;;;;;4987892;28;20026;-86
2022/01/21 02:32:16;;;;;;;27.20;10.88;;;;;;;;;;4643215;28;9999879;-85
2022/01/21 02:34:43;;;;;;;32.30;13.07;;;;;;;;;;4994812;28;20543;-84
2022/01/21 02:37:15;;;;;;;33.88;12.57;;;;;;;;;;5013581;28;20029;-84
2022/01/21 02:39:41;;;;;;;38.88;14.18;;;;;;;;;;5005626;28;20130;-84
2022/01/21 02:42:08;;;;;;;38.55;15.35;;;;;;;;;;5003883;28;20441;-84
2022/01/21 02:44:34;;;;;;;39.15;13.93;;;;;;;;;;4998164;28;20018;-87
2022/01/21 02:47:03;;;;;;;45.25;13.85;;;;;;;;;;5004457;28;20038;-85
2022/01/21 02:49:29;;;;;;;49.50;13.18;;;;;;;;;;4999516;28;20071;-85
2022/01/21 02:51:57;;;;;;;38.47;14.02;;;;;;;;;;4987913;28;20481;-87
2022/01/21 02:54:23;;;;;;;43.55;12.98;;;;;;;;;;5003303;28;20050;-85
2022/01/21 02:56:50;;;;;;;38.90;12.07;;;;;;;;;;5004469;28;20027;-85
2022/01/21 02:59:19;;;;;;;42.50;13.15;;;;;;;;;;4989892;28;20122;-88
2022/01/21 03:01:45;;;;;;;38.20;12.60;;;;;;;;;;4989269;28;20082;-84
2022/01/21 03:04:19;;;;;;;42.30;14.25;;;;;;;;;;5005441;28;20031;-85
2022/01/21 03:06:45;;;;;;;47.53;13.93;;;;;;;;;;5005837;28;20353;-86
2022/01/21 03:09:16;;;;;;;45.85;13.80;;;;;;;;;;5016874;28;20028;-85
2022/01/21 03:11:42;;;;;;;47.40;13.40;;;;;;;;;;5006187;28;20474;-83
2022/01/21 03:14:08;;;;;;;44.63;14.13;;;;;;;;;;4989571;28;20030;-85
2022/01/21 03:16:35;;;;;;;46.80;14.85;;;;;;;;;;4986635;28;20168;-85
2022/01/21 03:19:01;;;;;;;36.85;13.68;;;;;;;;;;4973725;28;20042;-85
2022/01/21 03:21:28;;;;;;;35.75;14.02;;;;;;;;;;4973872;28;20023;-84
2022/01/21 03:23:57;;;;;;;38.33;13.05;;;;;;;;;;4974107;28;20022;-84
2022/01/21 03:26:25;;;;;;;42.95;13.50;;;;;;;;;;4977083;28;20038;-85
2022/01/21 03:28:52;;;;;;;40.80;13.05;;;;;;;;;;5009514;28;20424;-87
2022/01/21 03:31:18;;;;;;;24.95;10.60;;;;;;;;;;4992998;28;20022;-85
2022/01/21 03:33:47;;;;;;;28.25;11.23;;;;;;;;;;5011373;28;20547;-87
2022/01/21 03:36:14;;;;;;;31.95;11.45;;;;;;;;;;4986917;28;20022;-88
2022/01/21 03:38:43;;;;;;;30.65;11.35;;;;;;;;;;4986550;28;20462;-87
2022/01/21 03:41:09;;;;;;;32.63;12.80;;;;;;;;;;4985562;28;20423;-88
2022/01/21 03:43:36;;;;;;;33.28;12.65;;;;;;;;;;5008337;28;20027;-87
2022/01/21 03:46:04;;;;;;;44.17;16.52;;;;;;;;;;4989732;28;20042;-87
2022/01/21 03:48:30;;;;;;;41.33;15.93;;;;;;;;;;4992414;28;20388;-89
2022/01/21 03:50:57;;;;;;;38.83;16.17;;;;;;;;;;5008676;28;20113;-87
2022/01/21 03:53:23;;;;;;;43.83;18.00;;;;;;;;;;4992999;28;20075;-84
2022/01/21 03:55:50;;;;;;;47.03;19.10;;;;;;;;;;4989254;28;20478;-84
2022/01/21 03:58:16;;;;;;;44.88;19.70;;;;;;;;;;4992604;28;20151;-85
2022/01/21 04:00:43;;;;;;;48.80;20.15;;;;;;;;;;4989308;28;20079;-87
2022/01/21 04:03:09;;;;;;;50.47;20.60;;;;;;;;;;4992665;28;20045;-88
2022/01/21 04:05:36;;;;;;;52.05;21.60;;;;;;;;;;4992344;28;20034;-89
2022/01/21 04:08:03;;;;;;;58.60;21.35;;;;;;;;;;4993514;28;20049;-88
2022/01/21 04:10:30;;;;;;;60.15;23.55;;;;;;;;;;5009103;28;20030;-88
2022/01/21 04:12:57;;;;;;;97.93;39.97;;;;;;;;;;4989593;28;20030;-88
2022/01/21 04:15:23;;;;;;;96.53;40.13;;;;;;;;;;4988431;28;20026;-88
2022/01/21 04:17:50;;;;;;;88.43;37.75;;;;;;;;;;5008139;28;20126;-87
2022/01/21 04:20:17;;;;;;;94.80;37.08;;;;;;;;;;4993415;28;20018;-88
2022/01/21 04:22:43;;;;;;;85.57;32.78;;;;;;;;;;5007837;28;20403;-88
2022/01/21 04:25:10;;;;;;;81.45;30.98;;;;;;;;;;4999107;28;20034;-88
2022/01/21 04:27:36;;;;;;;82.78;30.13;;;;;;;;;;5007661;28;20069;-88
2022/01/21 04:30:07;;;;;;;60.42;25.80;;;;;;;;;;5007334;28;20114;-88
2022/01/21 04:32:33;;;;;;;60.53;26.00;;;;;;;;;;4991490;28;20099;-92
2022/01/21 04:35:00;;;;;;;72.25;27.10;;;;;;;;;;5007570;28;20349;-87
2022/01/21 04:37:26;;;;;;;52.75;21.27;;;;;;;;;;4995105;28;20022;-87
2022/01/21 04:40:09;;;;;;;53.58;20.77;;;;;;;;;;4991701;28;20366;-88
2022/01/21 04:48:05;;;;;;;29.20;13.95;;;;;;;;;;4991075;28;20088;-87
2022/01/21 04:50:40;;;;;;;32.85;14.75;;;;;;;;;;5006028;28;20035;-89
2022/01/21 04:53:06;;;;;;;33.47;13.65;;;;;;;;;;4990480;28;20022;-87
2022/01/21 04:55:33;;;;;;;27.33;10.45;;;;;;;;;;5007547;28;20023;-88
2022/01/21 04:58:00;;;;;;;22.00;9.13;;;;;;;;;;4995333;28;20465;-87
2022/01/21 05:00:26;;;;;;;20.25;8.18;;;;;;;;;;5007687;28;20411;-86
2022/01/21 05:02:53;;;;;;;22.67;8.45;;;;;;;;;;5007085;28;20088;-86
2022/01/21 05:05:19;;;;;;;21.45;8.70;;;;;;;;;;5007466;28;20027;-86
2022/01/21 05:07:45;;;;;;;21.25;8.93;;;;;;;;;;5007490;28;20030;-87
2022/01/21 05:10:12;;;;;;;34.05;13.23;;;;;;;;;;4991531;28;20476;-86
2022/01/21 05:12:39;;;;;;;38.35;13.40;;;;;;;;;;4991627;28;20499;-88
2022/01/21 05:15:14;;;;;;;41.55;15.70;;;;;;;;;;4990874;28;20027;-87
2022/01/21 05:17:45;;;;;;;69.22;27.52;;;;;;;;;;5006555;28;20170;-87
2022/01/21 05:20:12;;;;;;;85.70;34.97;;;;;;;;;;4990302;28;20038;-88
2022/01/21 05:22:39;;;;;;;82.20;36.50;;;;;;;;;;4991928;28;20087;-88
2022/01/21 05:25:05;;;;;;;106.25;41.83;;;;;;;;;;4987742;28;20023;-91
2022/01/21 05:27:32;;;;;;;102.00;47.17;;;;;;;;;;4646692;28;10000103;-90
2022/01/21 05:30:01;;;;;;;114.53;49.03;;;;;;;;;;5025291;28;20020;-90
2022/01/21 05:32:28;;;;;;;148.32;58.83;;;;;;;;;;5005086;28;20058;-89
2022/01/21 05:34:54;;;;;;;157.50;67.97;;;;;;;;;;5007205;28;20502;-92
2022/01/21 05:37:21;;;;;;;168.25;70.55;;;;;;;;;;5007865;28;20022;-88
2022/01/21 05:39:47;;;;;;;175.00;75.88;;;;;;;;;;4998230;28;20045;-90
2022/01/21 05:42:14;;;;;;;184.13;76.97;;;;;;;;;;4990468;28;20041;-88
2022/01/21 05:47:10;;;;;;;162.43;72.35;;;;;;;;;;4992077;28;20026;-89
2022/01/21 05:49:38;;;;;;;188.60;85.00;;;;;;;;;;4991138;28;20791;-89
2022/01/21 05:52:15;;;;;;;173.65;76.10;;;;;;;;;;5006462;28;20030;-91
2022/01/21 05:54:43;;;;;;;159.13;70.18;;;;;;;;;;5018432;28;20056;-90
2022/01/21 05:57:11;;;;;;;153.02;64.60;;;;;;;;;;5007291;28;20023;-90
2022/01/21 05:59:38;;;;;;;120.72;54.63;;;;;;;;;;5007579;28;20035;-88
2022/01/21 06:02:08;;;;;;;131.40;56.05;;;;;;;;;;5007264;28;20154;-88
2022/01/21 06:04:38;;;;;;;115.40;53.63;;;;;;;;;;4996455;28;20073;-88
2022/01/21 06:07:08;;;;;;;113.20;49.83;;;;;;;;;;5006730;28;20365;-88
2022/01/21 06:09:34;;;;;;;84.82;38.25;;;;;;;;;;4987952;28;20018;-89
2022/01/21 06:12:04;;;;;;;64.82;30.17;;;;;;;;;;5003737;28;20030;-88
2022/01/21 06:14:30;;;;;;;63.65;29.67;;;;;;;;;;4993008;28;20033;-89
2022/01/21 06:17:00;;;;;;;68.93;30.88;;;;;;;;;;5007384;28;20061;-88
2022/01/21 06:19:26;;;;;;;70.50;32.15;;;;;;;;;;4990718;28;20489;-91
2022/01/21 06:21:52;;;;;;;79.43;34.25;;;;;;;;;;4991337;28;20037;-89
2022/01/21 06:24:19;;;;;;;92.00;38.22;;;;;;;;;;4990472;28;20015;-89
2022/01/21 06:26:46;;;;;;;80.80;37.90;;;;;;;;;;5009974;28;20030;-89
2022/01/21 06:29:12;;;;;;;76.88;33.95;;;;;;;;;;4990554;28;20019;-89
2022/01/21 06:31:39;;;;;;;78.63;35.63;;;;;;;;;;5001120;28;20041;-90
2022/01/21 06:34:05;;;;;;;78.93;33.20;;;;;;;;;;4986538;28;20133;-90
2022/01/21 06:36:32;;;;;;;67.43;29.65;;;;;;;;;;5006625;28;20048;-90
2022/01/21 06:38:58;;;;;;;75.05;29.88;;;;;;;;;;4993099;28;20042;-89
2022/01/21 06:41:24;;;;;;;78.18;33.47;;;;;;;;;;5004726;28;20080;-91
2022/01/21 06:43:51;;;;;;;86.72;40.03;;;;;;;;;;4990005;28;20078;-90
2022/01/21 06:46:20;;;;;;;98.43;44.53;;;;;;;;;;5005848;28;20034;-89
2022/01/21 06:48:47;;;;;;;97.82;42.88;;;;;;;;;;5004866;28;20035;-90
2022/01/21 06:51:13;;;;;;;101.93;44.85;;;;;;;;;;5005262;28;20461;-89
2022/01/21 06:53:39;;;;;;;100.13;45.40;;;;;;;;;;4991087;28;20031;-89
2022/01/21 06:56:06;;;;;;;99.53;45.08;;;;;;;;;;4989941;28;20262;-87
2022/01/21 06:58:32;;;;;;;101.70;46.22;;;;;;;;;;4989903;28;20027;-88
2022/01/21 07:00:59;;;;;;;104.35;44.45;;;;;;;;;;5003705;28;20025;-87
2022/01/21 07:03:25;;;;;;;105.60;43.08;;;;;;;;;;5006285;28;20353;-87
2022/01/21 07:05:53;;;;;;;88.28;42.22;;;;;;;;;;5006716;28;20022;-87
2022/01/21 07:08:19;;;;;;;86.40;40.10;;;;;;;;;;4993915;28;20567;-87
2022/01/21 07:10:46;;;;;;;92.68;40.80;;;;;;;;;;5004668;28;20032;-87
2022/01/21 07:13:12;;;;;;;87.60;40.70;;;;;;;;;;4990425;28;20418;-87
2022/01/21 07:15:39;;;;;;;89.75;42.25;;;;;;;;;;5006289;28;20027;-88
2022/01/21 07:18:05;;;;;;;80.25;39.03;;;;;;;;;;5006133;28;20043;-87
2022/01/21 07:20:33;;;;;;;78.93;37.95;;;;;;;;;;5002030;28;20027;-88
2022/01/21 07:22:59;;;;;;;85.50;40.88;;;;;;;;;;5005368;28;20026;-88
2022/01/21 07:25:27;;;;;;;73.70;34.97;;;;;;;;;;5004105;28;20034;-87
2022/01/21 07:27:53;;;;;;;87.43;38.58;;;;;;;;;;5006146;28;20033;-87
2022/01/21 07:30:20;;;;;;;75.57;35.45;;;;;;;;;;4991428;28;20026;-88
2022/01/21 07:32:46;;;;;;;65.00;28.08;;;;;;;;;;5006100;28;20057;-87
2022/01/21 07:35:14;;;;;;;57.50;26.63;;;;;;;;;;4990021;28;20030;-88
2022/01/21 07:37:41;;;;;;;52.80;25.95;;;;;;;;;;4995181;28;20041;-87
2022/01/21 07:40:08;;;;;;;58.33;26.27;;;;;;;;;;4989461;28;20034;-88
2022/01/21 07:42:35;;;;;;;55.00;25.88;;;;;;;;;;5004530;28;20465;-89
2022/01/21 07:45:02;;;;;;;59.70;26.27;;;;;;;;;;5006118;28;20053;-89
2022/01/21 07:47:28;;;;;;;51.80;23.77;;;;;;;;;;5006619;28;20041;-89
2022/01/21 07:49:55;;;;;;;52.22;25.33;;;;;;;;;;5006391;28;20031;-89
2022/01/21 07:52:21;;;;;;;49.58;23.38;;;;;;;;;;4997509;28;20023;-88
2022/01/21 07:54:47;;;;;;;44.03;21.42;;;;;;;;;;4991224;28;20022;-88
2022/01/21 07:57:14;;;;;;;47.65;22.50;;;;;;;;;;4990236;28;20027;-89
2022/01/21 07:59:40;;;;;;;51.20;23.75;;;;;;;;;;5006015;28;20030;-90
2022/01/21 08:02:06;;;;;;;51.40;23.60;;;;;;;;;;5005604;28;20084;-89
2022/01/21 08:04:36;;;;;;;48.92;22.88;;;;;;;;;;4991125;28;20018;-89
2022/01/21 08:07:02;;;;;;;50.47;22.08;;;;;;;;;;4993260;28;20022;-89
2022/01/21 08:09:29;;;;;;;40.55;19.13;;;;;;;;;;4993920;28;20023;-89
2022/01/21 08:11:55;;;;;;;44.80;18.65;;;;;;;;;;5000800;28;20045;-89
2022/01/21 08:14:22;;;;;;;37.33;18.77;;;;;;;;;;4992557;28;20109;-89
2022/01/21 08:16:49;;;;;;;40.65;17.65;;;;;;;;;;5008334;28;20117;-89
2022/01/21 08:19:16;;;;;;;38.85;19.63;;;;;;;;;;4992196;28;20041;-89
2022/01/21 08:21:42;;;;;;;45.40;20.25;;;;;;;;;;4992221;28;20034;-90
2022/01/21 08:24:09;;;;;;;45.85;21.00;;;;;;;;;;4991585;28;20035;-89
2022/01/21 08:26:36;;;;;;;48.70;23.60;;;;;;;;;;4992084;28;20060;-88
2022/01/21 08:29:04;;;;;;;49.10;23.52;;;;;;;;;;5006714;28;20022;-88
2022/01/21 08:31:30;;;;;;;47.55;22.70;;;;;;;;;;4989914;28;20032;-91
2022/01/21 08:33:57;;;;;;;44.47;22.02;;;;;;;;;;4991511;28;20054;-90
2022/01/21 08:36:24;;;;;;;47.25;23.27;;;;;;;;;;4993565;28;20494;-88
2022/01/21 08:38:51;;;;;;;48.53;23.35;;;;;;;;;;4993569;28;20041;-88
2022/01/21 08:41:18;;;;;;;44.67;22.20;;;;;;;;;;4992179;28;20033;-89
2022/01/21 08:43:44;;;;;;;44.38;22.40;;;;;;;;;;4991805;28;20083;-90
2022/01/21 08:46:11;;;;;;;50.97;22.20;;;;;;;;;;4991298;28;20026;-89
2022/01/21 08:48:37;;;;;;;45.50;22.60;;;;;;;;;;4992275;28;20041;-90
2022/01/21 08:51:12;;;;;;;44.33;20.02;;;;;;;;;;4991510;28;20026;-89
2022/01/21 08:53:41;;;;;;;41.00;20.05;;;;;;;;;;5007832;28;20026;-89
2022/01/21 08:56:10;;;;;;;40.30;19.98;;;;;;;;;;5004103;28;20023;-90
2022/01/21 08:58:37;;;;;;;40.45;19.27;;;;;;;;;;5008274;28;20038;-90
2022/01/21 09:01:09;;;;;;;44.30;20.58;;;;;;;;;;4992738;28;20033;-89
2022/01/21 09:03:36;;;;;;;45.28;20.13;;;;;;;;;;5011980;28;20048;-90
2022/01/21 09:06:02;;;;;;;45.08;21.25;;;;;;;;;;5008138;28;20061;-89
2022/01/21 09:08:30;;;;;;;42.45;20.52;;;;;;;;;;4989736;28;20542;-90
2022/01/21 09:10:57;;;;;;;49.72;21.52;;;;;;;;;;5003923;28;20058;-89
2022/01/21 09:13:27;;;;;;;45.60;22.73;;;;;;;;;;4991739;28;20026;-90
2022/01/21 09:15:58;;;;;;;47.60;22.25;;;;;;;;;;4991921;28;20480;-91
2022/01/21 09:18:25;;;;;;;43.63;21.27;;;;;;;;;;5008670;28;20050;-89
2022/01/21 09:20:52;;;;;;;48.00;22.90;;;;;;;;;;5008397;28;20025;-88
2022/01/21 09:23:18;;;;;;;50.10;23.08;;;;;;;;;;5007984;28;20117;-88
2022/01/21 09:25:44;;;;;;;50.50;22.85;;;;;;;;;;5008367;28;20022;-85
2022/01/21 09:28:11;;;;;;;51.47;25.30;;;;;;;;;;5008188;28;20026;-87
2022/01/21 09:30:38;;;;;;;55.53;26.98;;;;;;;;;;5008117;28;20089;-87
2022/01/21 09:33:04;;;;;;;59.75;27.67;;;;;;;;;;4993218;28;20058;-88
2022/01/21 09:35:30;;;;;;;55.65;27.75;;;;;;;;;;5008293;28;20026;-88
2022/01/21 09:37:57;;;;;;;66.53;32.38;;;;;;;;;;5008064;28;20045;-88
2022/01/21 09:40:29;;;;;;;63.50;31.00;;;;;;;;;;4681134;28;9999620;-88
2022/01/21 09:42:56;;;;;;;70.15;31.05;;;;;;;;;;4998816;28;20027;-89
2022/01/21 09:45:24;;;;;;;64.35;31.95;;;;;;;;;;4991783;28;20022;-88
2022/01/21 09:47:54;;;;;;;67.85;32.20;;;;;;;;;;5020237;28;20030;-88
2022/01/21 09:50:23;;;;;;;64.50;31.92;;;;;;;;;;4992461;28;20037;-87
2022/01/21 09:52:50;;;;;;;68.07;32.38;;;;;;;;;;4992213;28;20030;-88
2022/01/21 09:55:20;;;;;;;69.95;33.03;;;;;;;;;;5007543;28;20461;-87
2022/01/21 09:57:50;;;;;;;70.45;32.25;;;;;;;;;;4990981;28;20033;-89
2022/01/21 10:00:17;;;;;;;69.28;32.42;;;;;;;;;;4996308;28;20076;-88
2022/01/21 10:02:45;;;;;;;71.30;33.47;;;;;;;;;;5007278;28;20101;-88
2022/01/21 10:05:12;;;;;;;74.13;32.75;;;;;;;;;;4992447;28;20018;-87
2022/01/21 10:07:40;;;;;;;76.78;34.92;;;;;;;;;;5007200;28;20042;-87
2022/01/21 10:10:08;;;;;;;77.97;33.80;;;;;;;;;;4980198;28;20038;-87
2022/01/21 10:12:39;;;;;;;69.07;34.28;;;;;;;;;;5006224;28;20372;-87
2022/01/21 10:15:07;;;;;;;79.25;35.97;;;;;;;;;;4997124;28;20481;-87
2022/01/21 10:17:34;;;;;;;75.93;35.15;;;;;;;;;;5006951;28;20034;-88
2022/01/21 10:20:16;;;;;;;79.55;35.33;;;;;;;;;;5022276;28;20479;-88
2022/01/21 10:23:03;;;;;;;74.00;37.17;;;;;;;;;;5006552;28;20484;-87
2022/01/21 10:25:30;;;;;;;89.00;41.40;;;;;;;;;;4994697;28;20026;-88
2022/01/21 10:28:14;;;;;;;89.15;40.40;;;;;;;;;;4988191;28;20026;-88
2022/01/21 10:30:42;;;;;;;83.45;40.72;;;;;;;;;;5002782;28;20840;-88
2022/01/21 10:33:25;;;;;;;87.07;41.03;;;;;;;;;;4984292;28;20039;-88
2022/01/21 10:36:06;;;;;;;87.55;41.28;;;;;;;;;;4986140;28;20041;-89
2022/01/21 10:38:38;;;;;;;84.82;40.90;;;;;;;;;;4988983;28;20046;-88
2022/01/21 10:41:06;;;;;;;90.03;39.88;;;;;;;;;;4989829;28;20019;-89
2022/01/21 10:43:32;;;;;;;86.20;37.25;;;;;;;;;;5003064;28;20030;-88
2022/01/21 10:46:13;;;;;;;74.10;34.67;;;;;;;;;;4971765;28;10000749;-87
2022/01/21 10:48:58;;;;;;;71.93;34.08;;;;;;;;;;4987498;28;20232;-88
2022/01/21 10:51:28;;;;;;;73.18;33.28;;;;;;;;;;4987874;28;20064;-86
2022/01/21 10:54:12;;;;;;;80.28;33.88;;;;;;;;;;4988622;28;20026;-86
2022/01/21 10:56:38;;;;;;;76.05;35.20;;;;;;;;;;4989015;28;20098;-87
2022/01/21 10:59:05;;;;;;;79.55;35.50;;;;;;;;;;5006079;28;20035;-89
2022/01/21 11:01:31;;;;;;;77.93;34.80;;;;;;;;;;5002556;28;20023;-88
2022/01/21 11:04:01;;;;;;;75.65;34.70;;;;;;;;;;4995650;28;20103;-87
2022/01/21 11:06:36;;;;;;;67.65;33.28;;;;;;;;;;5005123;28;20023;-87
2022/01/21 11:09:16;;;;;;;74.22;33.17;;;;;;;;;;5005772;28;20113;-87
2022/01/21 11:11:46;;;;;;;77.03;35.78;;;;;;;;;;4991096;28;20034;-87
2022/01/21 11:14:14;;;;;;;71.78;34.25;;;;;;;;;;5035267;28;20051;-87
2022/01/21 11:16:44;;;;;;;72.45;34.42;;;;;;;;;;5052254;28;20111;-88
2022/01/21 11:19:12;;;;;;;76.50;35.70;;;;;;;;;;5006179;28;20380;-87
2022/01/21 11:21:53;;;;;;;80.40;36.17;;;;;;;;;;5006215;28;20022;-87
2022/01/21 11:24:21;;;;;;;86.15;37.55;;;;;;;;;;5006378;28;20027;-88
2022/01/21 11:27:06;;;;;;;88.93;40.47;;;;;;;;;;4991099;28;20023;-87
2022/01/21 11:29:32;;;;;;;89.95;40.13;;;;;;;;;;5012883;28;20116;-87
2022/01/21 11:31:59;;;;;;;94.78;42.20;;;;;;;;;;5005545;28;20580;-88
2022/01/21 11:34:25;;;;;;;103.35;45.67;;;;;;;;;;4992121;28;20537;-87
2022/01/21 11:36:52;;;;;;;119.07;50.22;;;;;;;;;;5039925;28;20032;-87
2022/01/21 11:39:21;;;;;;;122.90;51.72;;;;;;;;;;5031981;28;20034;-88
2022/01/21 11:41:51;;;;;;;137.07;55.65;;;;;;;;;;4992615;28;20109;-87
2022/01/21 11:44:18;;;;;;;130.75;51.88;;;;;;;;;;4993679;28;20025;-88
2022/01/21 11:46:59;;;;;;;118.10;49.38;;;;;;;;;;5009254;28;20026;-87
2022/01/21 11:49:26;;;;;;;106.47;48.72;;;;;;;;;;5006634;28;20488;-87
2022/01/21 11:52:07;;;;;;;111.45;47.60;;;;;;;;;;5008871;28;20037;-87
2022/01/21 11:54:37;;;;;;;95.07;44.30;;;;;;;;;;4993154;28;20076;-88
2022/01/21 11:57:05;;;;;;;91.03;43.83;;;;;;;;;;4992807;28;20058;-87
2022/01/21 11:59:37;;;;;;;97.10;44.22;;;;;;;;;;4992779;28;20099;-87
2022/01/21 12:02:16;;;;;;;97.70;44.50;;;;;;;;;;4992928;28;20026;-86
2022/01/21 12:04:46;;;;;;;102.03;46.00;;;;;;;;;;4998125;28;20095;-87
2022/01/21 12:07:28;;;;;;;103.95;48.85;;;;;;;;;;4991934;28;20464;-87
2022/01/21 12:09:57;;;;;;;114.18;51.47;;;;;;;;;;4992285;28;20034;-88
2022/01/21 12:12:25;;;;;;;124.47;57.85;;;;;;;;;;4993340;28;20473;-87
2022/01/21 12:14:59;;;;;;;138.60;60.60;;;;;;;;;;4989317;28;20031;-87
2022/01/21 12:17:51;;;;;;;123.60;58.05;;;;;;;;;;5003856;28;20130;-86
2022/01/21 12:20:17;;;;;;;126.93;58.13;;;;;;;;;;4994643;28;20034;-86
2022/01/21 12:22:44;;;;;;;136.80;59.80;;;;;;;;;;5008542;28;20031;-89
2022/01/21 12:25:12;;;;;;;130.82;58.92;;;;;;;;;;5007313;28;20023;-87
2022/01/21 12:27:40;;;;;;;116.85;52.10;;;;;;;;;;5008276;28;20023;-87
2022/01/21 12:30:27;;;;;;;119.82;53.67;;;;;;;;;;4995362;28;20377;-87
2022/01/21 12:32:59;;;;;;;118.15;53.47;;;;;;;;;;4990715;28;20050;-88
2022/01/21 12:35:26;;;;;;;113.78;51.92;;;;;;;;;;5021767;28;20481;-87
2022/01/21 12:40:58;;;;;;;111.15;49.40;;;;;;;;;;4992498;28;20027;-86
2022/01/21 12:43:37;;;;;;;130.45;54.00;;;;;;;;;;5052903;28;20377;-87
2022/01/21 12:46:05;;;;;;;143.82;58.78;;;;;;;;;;4997404;28;20020;-86
2022/01/21 12:48:34;;;;;;;133.35;56.88;;;;;;;;;;5008440;28;20117;-86
2022/01/21 12:51:14;;;;;;;125.75;54.72;;;;;;;;;;5008145;28;20022;-87
2022/01/21 12:55:55;;;;;;;136.77;59.40;;;;;;;;;;4998453;28;20053;-86
2022/01/21 12:56:32;;;;;;;145.77;59.67;;;;;;;;;;4991966;28;20573;-87
2022/01/21 12:58:59;;;;;;;131.82;57.65;;;;;;;;;;4646802;28;10000048;-86
2022/01/21 13:01:35;;;;;;;124.70;58.58;;;;;;;;;;5007831;28;20109;-87
2022/01/21 13:04:03;;;;;;;134.88;58.55;;;;;;;;;;4982448;28;20465;-88
2022/01/21 13:06:48;;;;;;;131.07;61.03;;;;;;;;;;4992956;28;20026;-85
2022/01/21 13:09:21;;;;;;;136.00;60.92;;;;;;;;;;4985153;28;20418;-87
2022/01/21 13:12:06;;;;;;;134.23;60.55;;;;;;;;;;5008428;28;20026;-87
2022/01/21 13:17:00;;;;;;;153.32;66.68;;;;;;;;;;4992208;28;20038;-86
2022/01/21 13:19:27;;;;;;;147.43;63.83;;;;;;;;;;4991799;28;20050;-86
2022/01/21 13:21:54;;;;;;;160.02;71.30;;;;;;;;;;5007721;28;20135;-86
2022/01/21 13:24:29;;;;;;;157.43;71.95;;;;;;;;;;5007977;28;20125;-86
2022/01/21 13:26:55;;;;;;;164.88;69.63;;;;;;;;;;4992776;28;20034;-86
2022/01/21 13:29:32;;;;;;;143.60;66.68;;;;;;;;;;5007933;28;20037;-86
2022/01/21 13:32:00;;;;;;;157.50;66.72;;;;;;;;;;4992294;28;20022;-86
2022/01/21 13:34:29;;;;;;;149.68;67.15;;;;;;;;;;4992184;28;20023;-86
2022/01/21 13:36:57;;;;;;;149.18;66.03;;;;;;;;;;4659896;28;10000126;-89
2022/01/21 13:39:32;;;;;;;147.73;66.63;;;;;;;;;;5007516;28;20045;-85
2022/01/21 13:42:12;;;;;;;139.02;60.90;;;;;;;;;;5006061;28;20126;-86
2022/01/21 13:44:42;;;;;;;133.13;57.53;;;;;;;;;;4988224;28;20106;-86
2022/01/21 13:47:28;;;;;;;141.70;61.45;;;;;;;;;;4988107;28;20018;-86
2022/01/21 13:50:00;;;;;;;117.40;55.67;;;;;;;;;;4990116;28;20046;-86
2022/01/21 13:52:42;;;;;;;123.35;54.78;;;;;;;;;;5004926;28;20372;-86
2022/01/21 13:55:10;;;;;;;122.65;54.75;;;;;;;;;;5006742;28;20079;-86
2022/01/21 13:57:43;;;;;;;128.52;55.35;;;;;;;;;;5005998;28;20038;-86
2022/01/21 14:00:09;;;;;;;126.88;55.15;;;;;;;;;;5006003;28;20042;-86
2022/01/21 14:02:36;;;;;;;118.20;54.08;;;;;;;;;;4972209;28;20556;-86
2022/01/21 14:05:04;;;;;;;125.95;55.22;;;;;;;;;;5005930;28;20026;-86
2022/01/21 14:07:34;;;;;;;125.55;55.65;;;;;;;;;;4986792;28;20580;-86
2022/01/21 14:10:07;;;;;;;118.93;52.92;;;;;;;;;;4988903;28;20381;-86
2022/01/21 14:12:34;;;;;;;115.45;51.25;;;;;;;;;;4988314;28;20023;-86
2022/01/21 14:15:00;;;;;;;122.25;52.95;;;;;;;;;;4990780;28;20046;-89
2022/01/21 14:17:27;;;;;;;114.10;50.05;;;;;;;;;;4990966;28;20067;-86
2022/01/21 14:19:54;;;;;;;113.10;50.60;;;;;;;;;;4990121;28;20050;-85
2022/01/21 14:22:22;;;;;;;120.72;53.05;;;;;;;;;;4990503;28;20025;-86
2022/01/21 14:24:50;;;;;;;113.90;49.22;;;;;;;;;;5004440;28;20065;-87
2022/01/21 14:27:19;;;;;;;123.60;52.08;;;;;;;;;;4985638;28;20023;-86
2022/01/21 14:29:50;;;;;;;127.75;55.75;;;;;;;;;;5006523;28;20029;-87
2022/01/21 14:32:18;;;;;;;120.88;53.90;;;;;;;;;;5001965;28;20099;-86
2022/01/21 14:34:44;;;;;;;125.22;59.00;;;;;;;;;;4986653;28;20030;-86
2022/01/21 14:37:12;;;;;;;128.77;56.72;;;;;;;;;;4989263;28;20027;-86
2022/01/21 14:39:41;;;;;;;121.55;54.05;;;;;;;;;;5005241;28;20045;-85
2022/01/21 14:42:09;;;;;;;115.22;50.58;;;;;;;;;;4989649;28;20482;-85
2022/01/21 14:44:35;;;;;;;114.97;50.95;;;;;;;;;;4991519;28;20044;-86
2022/01/21 14:47:05;;;;;;;122.35;50.55;;;;;;;;;;5003249;28;20037;-86
2022/01/21 14:49:32;;;;;;;118.25;48.55;;;;;;;;;;4989474;28;20023;-87
2022/01/21 14:54:43;;;;;;;100.80;43.05;;;;;;;;;;5002316;28;20557;-86
2022/01/21 14:57:10;;;;;;;99.25;42.78;;;;;;;;;;5028957;28;20028;-85
2022/01/21 14:59:37;;;;;;;102.80;42.80;;;;;;;;;;5035268;28;20042;-86
2022/01/21 15:02:05;;;;;;;97.50;43.40;;;;;;;;;;5003838;28;20480;-85
2022/01/21 15:04:37;;;;;;;99.40;42.92;;;;;;;;;;4989042;28;20037;-85
2022/01/21 15:07:08;;;;;;;106.38;45.10;;;;;;;;;;4984850;28;20105;-85
2022/01/21 15:09:37;;;;;;;117.43;48.35;;;;;;;;;;5005229;28;20042;-86
2022/01/21 15:14:22;;;;;;;110.47;48.67;;;;;;;;;;4986533;28;20030;-85
2022/01/21 15:14:58;;;;;;;112.30;49.38;;;;;;;;;;4993875;28;20038;-85